createdAt,value
2019-01-12T00:00:10.896Z,58.80
2019-01-12T00:02:39.581Z,59.10
2019-01-12T00:05:17.448Z,59.30
2019-01-12T00:07:46.493Z,59.30
2019-01-12T00:10:15.221Z,59.20
2019-01-12T00:12:43.995Z,58.90
2019-01-12T00:15:24.801Z,58.30
2019-01-12T00:17:55.683Z,58.40
2019-01-12T00:20:24.359Z,59.20
2019-01-12T00:22:53.019Z,59.90
2019-01-12T00:25:30.717Z,59.50
2019-01-12T00:27:59.404Z,59.70
2019-01-12T00:30:28.446Z,59.30
2019-01-12T00:32:57.209Z,58.90
2019-01-12T00:35:34.950Z,58.30
2019-01-12T00:38:04.009Z,58.20
2019-01-12T00:40:32.706Z,58.40
2019-01-12T00:43:01.474Z,59.10
2019-01-12T00:45:39.477Z,59.20
2019-01-12T00:48:11.289Z,59.00
2019-01-12T00:50:40.107Z,58.80
2019-01-12T00:53:08.846Z,58.80
2019-01-12T00:55:46.473Z,58.70
2019-01-12T00:58:15.205Z,58.40
2019-01-12T01:00:43.938Z,57.80
2019-01-12T01:03:12.636Z,58.80
2019-01-12T01:05:50.311Z,58.60
2019-01-12T01:08:19.317Z,58.10
2019-01-12T01:10:47.991Z,58.20
2019-01-12T01:13:16.767Z,58.00
2019-01-12T01:15:54.398Z,57.90
2019-01-12T01:18:23.357Z,58.30
2019-01-12T01:20:54.445Z,58.80
2019-01-12T01:23:23.267Z,58.80
2019-01-12T01:26:01.403Z,58.50
2019-01-12T01:28:30.240Z,57.90
2019-01-12T01:30:59.170Z,58.60
2019-01-12T01:33:28.240Z,58.80
2019-01-12T01:35:56.968Z,58.80
2019-01-12T01:38:25.732Z,58.60
2019-01-12T01:40:54.542Z,58.70
2019-01-12T01:43:23.400Z,57.90
2019-01-12T01:46:01.325Z,57.90
2019-01-12T01:48:30.115Z,56.70
2019-01-12T01:50:58.864Z,56.20
2019-01-12T01:53:27.558Z,56.00
2019-01-12T01:56:05.733Z,57.20
2019-01-12T01:58:34.754Z,57.10
2019-01-12T02:01:03.611Z,56.70
2019-01-12T02:03:32.310Z,57.10
2019-01-12T02:06:09.974Z,56.60
2019-01-12T02:08:38.711Z,57.50
2019-01-12T02:11:07.952Z,58.00
2019-01-12T02:13:36.660Z,57.90
2019-01-12T02:16:17.571Z,57.70
2019-01-12T02:18:46.330Z,59.10
2019-01-12T02:21:15.592Z,59.10
2019-01-12T02:23:44.407Z,58.70
2019-01-12T02:26:29.079Z,58.30
2019-01-12T02:28:58.726Z,58.90
2019-01-12T02:31:27.471Z,58.10
2019-01-12T02:33:56.253Z,57.40
2019-01-12T02:36:25.254Z,57.30
2019-01-12T02:38:54.038Z,57.50
2019-01-12T02:41:23.133Z,57.70
2019-01-12T02:43:51.921Z,57.00
2019-01-12T02:46:29.818Z,57.40
2019-01-12T02:48:58.513Z,58.10
2019-01-12T02:51:27.550Z,58.20
2019-01-12T02:53:56.189Z,58.50
2019-01-12T02:56:33.970Z,58.30
2019-01-12T02:59:02.775Z,57.80
2019-01-12T03:01:31.826Z,57.00
2019-01-12T03:04:00.750Z,56.30
2019-01-12T03:06:40.957Z,56.20
2019-01-12T03:09:09.969Z,55.70
2019-01-12T03:11:38.774Z,56.60
2019-01-12T03:14:07.673Z,56.70
2019-01-12T03:16:45.476Z,56.70
2019-01-12T03:19:14.528Z,56.60
2019-01-12T03:21:44.565Z,57.10
2019-01-12T03:24:13.906Z,57.70
2019-01-12T03:26:52.490Z,57.90
2019-01-12T03:29:21.191Z,57.60
2019-01-12T03:31:49.897Z,57.00
2019-01-12T03:34:19.247Z,56.80
2019-01-12T03:36:48.241Z,56.90
2019-01-12T03:39:17.218Z,57.20
2019-01-12T03:41:47.015Z,57.30
2019-01-12T03:44:15.816Z,57.70
2019-01-12T03:46:53.728Z,57.80
2019-01-12T03:49:22.446Z,58.00
2019-01-12T03:51:53.270Z,58.20
2019-01-12T03:54:22.085Z,57.90
2019-01-12T03:56:59.795Z,57.60
2019-01-12T03:59:31.913Z,57.80
2019-01-12T04:02:02.960Z,58.90
2019-01-12T04:04:31.734Z,58.90
2019-01-12T04:07:09.511Z,58.50
2019-01-12T04:09:38.240Z,58.60
2019-01-12T04:12:10.466Z,58.40
2019-01-12T04:14:39.304Z,57.90
2019-01-12T04:17:16.993Z,57.70
2019-01-12T04:19:45.698Z,58.10
2019-01-12T04:22:14.450Z,58.00
2019-01-12T04:24:43.142Z,57.80
2019-01-12T04:27:21.191Z,58.30
2019-01-12T04:29:49.886Z,58.40
2019-01-12T04:32:18.602Z,58.80
2019-01-12T04:34:47.630Z,57.90
2019-01-12T04:37:16.724Z,58.30
2019-01-12T04:39:47.591Z,58.40
2019-01-12T04:42:16.635Z,58.50
2019-01-12T04:44:45.504Z,58.70
2019-01-12T04:49:58.070Z,58.80
2019-01-12T04:52:26.762Z,58.50
2019-01-12T04:54:55.581Z,59.10
2019-01-12T04:57:33.274Z,58.80
2019-01-12T05:00:02.181Z,58.90
2019-01-12T05:02:31.016Z,58.40
2019-01-12T05:05:00.024Z,58.40
2019-01-12T05:07:37.961Z,58.10
2019-01-12T05:10:07.847Z,58.40
2019-01-12T05:12:37.013Z,58.20
2019-01-12T05:15:06.474Z,58.70
2019-01-12T05:17:44.085Z,59.40
2019-01-12T05:20:20.036Z,59.20
2019-01-12T05:22:48.964Z,58.70
2019-01-12T05:25:32.902Z,58.90
2019-01-12T05:28:01.622Z,59.40
2019-01-12T05:30:30.578Z,59.70
2019-01-12T05:32:59.597Z,59.60
2019-01-12T05:35:37.449Z,59.30
2019-01-12T05:38:06.329Z,58.90
2019-01-12T05:40:35.148Z,59.00
2019-01-12T05:43:03.934Z,59.10
2019-01-12T05:45:41.923Z,58.80
2019-01-12T05:48:10.674Z,59.10
2019-01-12T05:50:39.831Z,58.20
2019-01-12T05:53:08.630Z,58.20
2019-01-12T05:55:56.598Z,58.40
2019-01-12T05:58:20.080Z,58.50
2019-01-12T06:00:48.794Z,58.00
2019-01-12T06:03:17.522Z,58.10
2019-01-12T06:05:55.153Z,59.10
2019-01-12T06:08:24.261Z,59.40
2019-01-12T06:10:53.491Z,60.00
2019-01-12T06:13:22.375Z,60.10
2019-01-12T06:16:00.122Z,59.60
2019-01-12T06:18:29.372Z,59.30
2019-01-12T06:20:58.369Z,59.40
2019-01-12T06:23:27.250Z,59.60
2019-01-12T06:26:05.749Z,59.90
2019-01-12T06:28:34.513Z,60.70
2019-01-12T06:31:03.246Z,60.10
2019-01-12T06:33:31.979Z,59.80
2019-01-12T06:36:09.844Z,59.50
2019-01-12T06:38:39.031Z,59.20
2019-01-12T06:41:10.503Z,58.80
2019-01-12T06:43:39.314Z,58.90
2019-01-12T06:46:17.509Z,59.30
2019-01-12T06:48:46.622Z,59.40
2019-01-12T06:51:18.292Z,58.70
2019-01-12T06:53:47.079Z,58.10
2019-01-12T06:58:59.973Z,58.50
2019-01-12T07:01:28.761Z,58.30
2019-01-12T07:03:57.490Z,58.00
2019-01-12T07:06:35.195Z,57.40
2019-01-12T07:09:06.146Z,57.20
2019-01-12T07:11:35.967Z,57.80
2019-01-12T07:14:05.034Z,57.80
2019-01-12T07:16:43.062Z,58.20
2019-01-12T07:19:12.093Z,58.30
2019-01-12T07:21:41.034Z,58.80
2019-01-12T07:24:09.940Z,58.80
2019-01-12T07:26:47.639Z,59.20
2019-01-12T07:29:16.623Z,58.20
2019-01-12T07:31:45.685Z,58.10
2019-01-12T07:34:14.652Z,58.80
2019-01-12T07:36:55.727Z,59.70
2019-01-12T07:39:24.699Z,59.20
2019-01-12T07:41:53.896Z,59.40
2019-01-12T07:44:25.525Z,59.60
2019-01-12T07:49:38.475Z,59.80
2019-01-12T07:52:07.262Z,59.80
2019-01-12T07:54:36.138Z,59.10
2019-01-12T07:57:05.126Z,58.50
2019-01-12T07:59:33.837Z,58.40
2019-01-12T08:02:02.753Z,58.30
2019-01-12T08:04:31.863Z,58.90
2019-01-12T08:09:46.118Z,58.60
2019-01-12T08:12:17.631Z,57.90
2019-01-12T08:14:49.118Z,58.10
2019-01-12T08:17:27.209Z,57.80
2019-01-12T08:19:56.716Z,57.80
2019-01-12T08:22:25.928Z,57.90
2019-01-12T08:24:55.080Z,57.70
2019-01-12T08:27:36.162Z,57.30
2019-01-12T08:30:06.319Z,57.50
2019-01-12T08:32:35.250Z,57.80
2019-01-12T08:35:04.127Z,57.90
2019-01-12T08:37:42.206Z,57.80
2019-01-12T08:42:47.145Z,57.20
2019-01-12T08:45:16.340Z,57.30
2019-01-12T08:47:45.304Z,57.60
2019-01-12T08:50:18.803Z,57.00
2019-01-12T08:52:47.899Z,56.80
2019-01-12T08:55:16.922Z,56.50
2019-01-12T08:57:54.827Z,56.30
2019-01-12T09:00:23.973Z,55.80
2019-01-12T09:02:54.631Z,55.90
2019-01-12T09:05:25.961Z,56.80
2019-01-12T09:10:45.021Z,57.50
2019-01-12T09:13:14.168Z,57.00
2019-01-12T09:15:43.688Z,56.60
2019-01-12T09:18:22.936Z,56.50
2019-01-12T09:20:51.835Z,57.00
2019-01-12T09:23:21.658Z,57.40
2019-01-12T09:25:51.314Z,57.80
2019-01-12T09:28:23.323Z,57.90
2019-01-12T09:30:52.265Z,57.50
2019-01-12T09:33:21.915Z,57.80
2019-01-12T09:35:50.858Z,58.20
2019-01-12T09:38:19.554Z,58.70
2019-01-12T09:40:48.465Z,59.40
2019-01-12T09:43:17.414Z,59.60
2019-01-12T09:45:46.403Z,59.00
2019-01-12T09:51:02.463Z,58.50
2019-01-12T09:53:33.654Z,58.60
2019-01-12T09:56:02.450Z,59.10
2019-01-12T09:58:41.031Z,59.10
2019-01-12T10:01:10.379Z,58.90
2019-01-12T10:03:39.558Z,58.60
2019-01-12T10:06:08.441Z,58.10
2019-01-12T10:08:47.165Z,58.50
2019-01-12T10:11:17.586Z,58.30
2019-01-12T10:13:48.242Z,57.80
2019-01-12T10:16:17.342Z,58.20
2019-01-12T10:18:55.434Z,57.90
2019-01-12T10:21:24.759Z,58.00
2019-01-12T10:23:54.208Z,56.90
2019-01-12T10:26:23.319Z,57.90
2019-01-12T10:29:01.651Z,58.20
2019-01-12T10:31:30.566Z,57.60
2019-01-12T10:34:02.899Z,58.20
2019-01-12T10:36:32.267Z,57.20
2019-01-12T10:39:10.286Z,57.10
2019-01-12T10:41:39.638Z,56.70
2019-01-12T10:44:10.375Z,57.00
2019-01-12T10:46:39.454Z,57.00
2019-01-12T10:49:18.260Z,57.80
2019-01-12T10:51:47.761Z,58.40
2019-01-12T10:54:17.397Z,58.40
2019-01-12T10:56:46.298Z,58.10
2019-01-12T10:59:24.606Z,57.80
2019-01-12T11:01:56.740Z,57.90
2019-01-12T11:04:25.612Z,57.50
2019-01-12T11:06:54.822Z,57.70
2019-01-12T11:09:32.552Z,57.80
2019-01-12T11:12:01.823Z,57.60
2019-01-12T11:14:30.951Z,57.10
2019-01-12T11:17:03.003Z,57.30
2019-01-12T11:19:40.776Z,57.40
2019-01-12T11:22:10.901Z,58.00
2019-01-12T11:24:40.343Z,58.40
2019-01-12T11:27:12.434Z,58.40
2019-01-12T11:29:49.365Z,57.40
2019-01-12T11:32:18.410Z,57.40
2019-01-12T11:34:47.512Z,58.20
2019-01-12T11:37:16.813Z,58.60
2019-01-12T11:39:55.781Z,58.80
2019-01-12T11:42:25.170Z,59.80
2019-01-12T11:44:55.203Z,59.60
2019-01-12T11:47:24.157Z,59.20
2019-01-12T11:52:36.352Z,59.20
2019-01-12T11:55:08.811Z,58.60
2019-01-12T11:57:38.274Z,58.30
2019-01-12T12:00:23.153Z,58.40
2019-01-12T12:02:52.654Z,58.60
2019-01-12T12:05:21.617Z,59.40
2019-01-12T12:07:50.558Z,60.30
2019-01-12T12:10:29.211Z,60.60
2019-01-12T12:12:58.099Z,60.50
2019-01-12T12:15:28.558Z,60.60
2019-01-12T12:17:57.902Z,60.10
2019-01-12T12:20:40.048Z,60.60
2019-01-12T12:23:11.848Z,60.60
2019-01-12T12:25:40.770Z,60.70
2019-01-12T12:28:09.679Z,60.90
2019-01-12T12:30:47.498Z,60.60
2019-01-12T12:33:19.727Z,60.70
2019-01-12T12:35:50.362Z,60.20
2019-01-12T12:38:19.382Z,59.90
2019-01-12T12:40:48.125Z,60.30
2019-01-12T12:43:17.367Z,60.20
2019-01-12T12:45:46.298Z,60.70
2019-01-12T12:48:15.301Z,60.60
2019-01-12T12:53:19.520Z,60.20
2019-01-12T12:55:48.610Z,60.00
2019-01-12T12:58:17.504Z,60.10
2019-01-12T13:01:01.218Z,61.00
2019-01-12T13:03:30.700Z,60.40
2019-01-12T13:05:59.624Z,60.00
2019-01-12T13:08:28.608Z,59.70
2019-01-12T13:11:06.718Z,59.30
2019-01-12T13:13:35.574Z,58.90
2019-01-12T13:16:04.654Z,58.80
2019-01-12T13:18:33.863Z,58.60
2019-01-12T13:21:12.048Z,58.70
2019-01-12T13:23:40.936Z,58.80
2019-01-12T13:26:09.962Z,58.10
2019-01-12T13:28:39.653Z,58.80
2019-01-12T13:31:17.475Z,58.90
2019-01-12T13:33:47.297Z,58.70
2019-01-12T13:36:18.152Z,58.70
2019-01-12T13:38:50.346Z,59.00
2019-01-12T13:41:28.383Z,58.70
2019-01-12T13:43:57.130Z,59.20
2019-01-12T13:46:26.020Z,59.10
2019-01-12T13:48:54.826Z,58.70
2019-01-12T13:51:32.649Z,58.60
2019-01-12T13:54:01.559Z,58.90
2019-01-12T13:56:31.953Z,59.10
2019-01-12T13:59:00.846Z,59.50
2019-01-12T14:01:40.051Z,60.00
2019-01-12T14:04:09.381Z,60.20
2019-01-12T14:06:38.275Z,60.00
2019-01-12T14:09:08.959Z,60.30
2019-01-12T14:14:21.747Z,60.40
2019-01-12T14:16:51.389Z,60.60
2019-01-12T14:19:29.710Z,59.90
2019-01-12T14:22:00.907Z,60.00
2019-01-12T14:24:29.886Z,60.10
2019-01-12T14:26:59.341Z,60.10
2019-01-12T14:29:37.380Z,60.10
2019-01-12T14:32:08.815Z,60.10
2019-01-12T14:34:40.003Z,59.40
2019-01-12T14:37:12.054Z,59.50
2019-01-12T14:39:50.602Z,59.80
2019-01-12T14:42:19.470Z,60.10
2019-01-12T14:44:48.444Z,60.00
2019-01-12T14:47:18.109Z,59.80
2019-01-12T14:49:56.121Z,59.60
2019-01-12T14:52:25.034Z,60.00
2019-01-12T14:54:54.728Z,59.90
2019-01-12T14:57:23.902Z,60.70
2019-01-12T15:00:02.653Z,61.40
2019-01-12T15:02:33.713Z,61.10
2019-01-12T15:05:02.621Z,60.90
2019-01-12T15:07:33.230Z,60.60
2019-01-12T15:10:12.693Z,61.30
2019-01-12T15:12:42.219Z,60.90
2019-01-12T15:15:12.788Z,61.30
2019-01-12T15:17:42.900Z,61.40
2019-01-12T15:23:07.108Z,61.10
2019-01-12T15:25:36.021Z,60.90
2019-01-12T15:28:09.333Z,60.80
2019-01-12T15:31:00.019Z,61.00
2019-01-12T15:33:29.697Z,60.40
2019-01-12T15:36:01.528Z,60.40
2019-01-12T15:38:30.390Z,61.10
2019-01-12T15:41:07.654Z,61.40
2019-01-12T15:43:36.505Z,61.40
2019-01-12T15:46:05.536Z,61.00
2019-01-12T15:48:35.042Z,61.50
2019-01-12T15:51:13.336Z,61.80
2019-01-12T15:53:42.329Z,62.20
2019-01-12T15:56:11.385Z,62.30
2019-01-12T15:58:40.840Z,62.00
2019-01-12T16:01:19.382Z,62.20
2019-01-12T16:03:48.861Z,62.30
2019-01-12T16:06:17.699Z,62.50
2019-01-12T16:08:47.256Z,61.90
2019-01-12T16:11:25.088Z,62.20
2019-01-12T16:13:54.190Z,62.30
2019-01-12T16:16:24.202Z,62.00
2019-01-12T16:18:53.502Z,61.70
2019-01-12T16:24:05.662Z,62.10
2019-01-12T16:26:34.782Z,62.40
2019-01-12T16:29:03.899Z,63.30
2019-01-12T16:31:41.684Z,63.40
2019-01-12T16:34:10.526Z,63.30
2019-01-12T16:36:39.382Z,63.90
2019-01-12T16:39:08.917Z,62.90
2019-01-12T16:41:37.868Z,62.90
2019-01-12T16:44:06.735Z,63.70
2019-01-12T16:46:35.443Z,63.60
2019-01-12T16:49:04.702Z,63.70
2019-01-12T16:51:42.217Z,63.10
2019-01-12T16:54:11.071Z,63.50
2019-01-12T16:56:39.783Z,63.60
2019-01-12T16:59:08.619Z,63.80
2019-01-12T17:01:48.454Z,63.90
2019-01-12T17:04:17.221Z,64.00
2019-01-12T17:14:39.596Z,64.30
2019-01-12T17:17:08.816Z,64.00
2019-01-12T17:19:37.808Z,64.30
2019-01-12T17:22:06.725Z,63.80
2019-01-12T17:24:35.827Z,64.10
2019-01-12T17:27:04.632Z,64.20
2019-01-12T17:29:33.642Z,64.40
2019-01-12T17:32:12.822Z,64.60
2019-01-12T17:34:41.607Z,64.60
2019-01-12T17:37:10.450Z,64.60
2019-01-12T17:39:41.857Z,64.50
2019-01-12T17:42:20.045Z,63.90
2019-01-12T17:44:49.317Z,64.20
2019-01-12T17:47:18.407Z,64.50
2019-01-12T17:49:58.590Z,64.20
2019-01-12T17:52:27.405Z,64.20
2019-01-12T17:54:56.216Z,64.10
2019-01-12T17:57:25.047Z,64.30
2019-01-12T18:00:07.820Z,64.80
2019-01-12T18:02:36.570Z,65.30
2019-01-12T18:05:05.549Z,65.70
2019-01-12T18:07:34.372Z,65.50
2019-01-12T18:10:12.990Z,65.10
2019-01-12T18:12:43.285Z,65.00
2019-01-12T18:15:13.164Z,65.10
2019-01-12T18:17:42.036Z,64.90
2019-01-12T18:20:20.247Z,65.30
2019-01-12T18:22:49.094Z,64.80
2019-01-12T18:25:17.993Z,65.40
2019-01-12T18:27:47.197Z,65.60
2019-01-12T18:30:25.041Z,65.80
2019-01-12T18:32:57.018Z,65.70
2019-01-12T18:35:25.950Z,65.50
2019-01-12T18:37:54.880Z,65.60
2019-01-12T18:40:32.453Z,65.00
2019-01-12T18:43:01.486Z,64.60
2019-01-12T18:45:30.613Z,64.20
2019-01-12T18:47:59.567Z,64.50
2019-01-12T18:50:38.008Z,64.70
2019-01-12T18:53:06.878Z,64.50
2019-01-12T18:55:35.608Z,64.80
2019-01-12T18:58:04.672Z,65.10
2019-01-12T19:00:42.637Z,65.20
2019-01-12T19:03:11.646Z,65.40
2019-01-12T19:05:40.530Z,64.70
2019-01-12T19:08:12.932Z,64.50
2019-01-12T19:13:25.074Z,64.90
2019-01-12T19:15:53.934Z,64.60
2019-01-12T19:18:22.746Z,64.10
2019-01-12T19:21:01.722Z,64.50
2019-01-12T19:23:30.669Z,64.60
2019-01-12T19:25:59.740Z,64.90
2019-01-12T19:28:28.487Z,65.20
2019-01-12T19:31:06.883Z,65.00
2019-01-12T19:33:35.670Z,64.70
2019-01-12T19:36:04.602Z,64.80
2019-01-12T19:38:33.303Z,64.50
2019-01-12T19:41:11.020Z,64.20
2019-01-12T19:43:39.994Z,64.10
2019-01-12T19:46:10.475Z,64.60
2019-01-12T19:48:39.417Z,64.30
2019-01-12T19:51:17.608Z,64.30
2019-01-12T19:53:46.780Z,64.40
2019-01-12T19:56:15.836Z,63.80
2019-01-12T19:58:47.339Z,64.00
2019-01-12T20:01:25.386Z,64.10
2019-01-12T20:03:54.305Z,64.20
2019-01-12T20:06:23.891Z,64.00
2019-01-12T20:08:52.813Z,64.40
2019-01-12T20:11:31.214Z,63.90
2019-01-12T20:14:00.477Z,63.60
2019-01-12T20:16:29.633Z,63.80
2019-01-12T20:18:58.632Z,64.20
2019-01-12T20:21:36.700Z,63.80
2019-01-12T20:24:07.371Z,63.80
2019-01-12T20:26:36.573Z,63.50
2019-01-12T20:29:07.470Z,63.80
2019-01-12T20:32:14.279Z,63.50
2019-01-12T20:34:52.145Z,63.60
2019-01-12T20:38:01.053Z,64.30
2019-01-12T20:41:08.566Z,63.80
2019-01-12T20:44:03.760Z,63.90
2019-01-12T20:47:13.883Z,64.10
2019-01-12T20:50:16.181Z,64.00
2019-01-12T20:53:25.998Z,63.80
2019-01-12T20:56:33.360Z,63.60
2019-01-12T20:59:28.078Z,64.40
2019-01-12T21:02:35.287Z,64.30
2019-01-12T21:05:25.432Z,64.80
2019-01-12T21:08:15.200Z,65.20
2019-01-12T21:14:31.791Z,64.40
2019-01-12T21:17:04.833Z,64.90
2019-01-12T21:19:34.689Z,64.60
2019-01-12T21:22:12.766Z,64.10
2019-01-12T21:24:43.279Z,63.40
2019-01-12T21:27:12.516Z,63.50
2019-01-12T21:29:43.515Z,63.70
2019-01-12T21:32:21.495Z,64.00
2019-01-12T21:34:50.346Z,64.20
2019-01-12T21:37:19.618Z,64.50
2019-01-12T21:39:48.462Z,63.80
2019-01-12T21:42:26.481Z,64.10
2019-01-12T21:44:55.494Z,63.60
2019-01-12T21:47:24.626Z,63.60
2019-01-12T21:49:53.522Z,63.30
2019-01-12T21:52:31.422Z,63.60
2019-01-12T21:55:00.368Z,64.30
2019-01-12T21:57:29.481Z,64.50
2019-01-12T21:59:58.997Z,64.20
2019-01-12T22:02:36.794Z,64.40
2019-01-12T22:05:06.289Z,64.20
2019-01-12T22:07:35.330Z,64.30
2019-01-12T22:10:04.633Z,64.10
2019-01-12T22:12:42.533Z,64.10
2019-01-12T22:15:13.002Z,63.90
2019-01-12T22:17:41.799Z,63.70
2019-01-12T22:20:13.268Z,63.50
2019-01-12T22:22:51.818Z,63.10
2019-01-12T22:25:20.817Z,63.70
2019-01-12T22:27:50.842Z,63.50
2019-01-12T22:30:19.848Z,63.60
2019-01-12T22:35:24.056Z,62.60
2019-01-12T22:37:53.240Z,62.90
2019-01-12T22:40:22.093Z,63.60
2019-01-12T22:42:50.988Z,62.50
2019-01-12T22:45:19.824Z,62.60
2019-01-12T22:47:48.618Z,62.60
2019-01-12T22:50:17.424Z,62.10
2019-01-12T22:52:55.232Z,61.70
2019-01-12T22:55:23.935Z,61.30
2019-01-12T22:57:53.858Z,61.50
2019-01-12T23:00:54.568Z,62.20
2019-01-12T23:03:23.632Z,62.10
2019-01-12T23:05:52.681Z,63.20
2019-01-12T23:08:21.777Z,63.00
2019-01-12T23:11:03.024Z,63.30
2019-01-12T23:13:32.052Z,63.00
2019-01-12T23:16:01.141Z,63.00
2019-01-12T23:18:29.887Z,63.40
2019-01-12T23:21:08.382Z,63.50
2019-01-12T23:23:37.445Z,63.60
2019-01-12T23:26:06.191Z,64.30
2019-01-12T23:28:35.007Z,64.10
2019-01-12T23:31:18.234Z,63.30
2019-01-12T23:33:49.205Z,63.00
2019-01-12T23:36:18.008Z,63.10
2019-01-12T23:38:46.988Z,62.70
2019-01-12T23:41:31.270Z,63.10
2019-01-12T23:44:00.340Z,62.90
2019-01-12T23:46:30.110Z,62.40
2019-01-12T23:48:58.821Z,62.70
2019-01-12T23:51:36.446Z,62.30
2019-01-12T23:54:05.209Z,62.50
2019-01-12T23:56:34.014Z,62.80
2019-01-12T23:59:02.864Z,62.10
